sensor_id;sensor_type;location;lat;lon;timestamp;P1;durP1;ratioP1;P2;durP2;ratioP2
84860;SDS011;75116;42.644;23.274;2024-02-21T00:00:35;5.90;;;3.13;;
84860;SDS011;75116;42.644;23.274;2024-02-21T00:03:00;4.60;;;3.05;;
84860;SDS011;75116;42.644;23.274;2024-02-21T00:05:27;3.50;;;2.38;;
84860;SDS011;75116;42.644;23.274;2024-02-21T00:07:53;3.33;;;2.50;;
84860;SDS011;75116;42.644;23.274;2024-02-21T00:10:18;3.03;;;2.35;;
84860;SDS011;75116;42.644;23.274;2024-02-21T00:12:44;3.63;;;2.00;;
84860;SDS011;75116;42.644;23.274;2024-02-21T00:15:09;4.35;;;2.47;;
84860;SDS011;75116;42.644;23.274;2024-02-21T00:17:35;4.35;;;2.50;;
84860;SDS011;75116;42.644;23.274;2024-02-21T00:20:00;3.97;;;2.45;;
84860;SDS011;75116;42.644;23.274;2024-02-21T00:22:26;3.80;;;2.50;;
84860;SDS011;75116;42.644;23.274;2024-02-21T00:24:54;4.35;;;2.08;;
84860;SDS011;75116;42.644;23.274;2024-02-21T00:27:23;2.33;;;2.13;;
84860;SDS011;75116;42.644;23.274;2024-02-21T00:29:48;5.78;;;2.17;;
84860;SDS011;75116;42.644;23.274;2024-02-21T00:32:14;1.38;;;1.13;;
84860;SDS011;75116;42.644;23.274;2024-02-21T00:34:39;4.38;;;2.38;;
84860;SDS011;75116;42.644;23.274;2024-02-21T00:37:05;3.83;;;2.60;;
84860;SDS011;75116;42.644;23.274;2024-02-21T00:39:31;3.58;;;2.60;;
84860;SDS011;75116;42.644;23.274;2024-02-21T00:41:56;2.63;;;1.92;;
84860;SDS011;75116;42.644;23.274;2024-02-21T00:44:22;3.47;;;1.77;;
84860;SDS011;75116;42.644;23.274;2024-02-21T00:46:47;4.38;;;3.10;;
84860;SDS011;75116;42.644;23.274;2024-02-21T00:49:13;4.55;;;3.30;;
84860;SDS011;75116;42.644;23.274;2024-02-21T00:51:38;3.17;;;2.42;;
84860;SDS011;75116;42.644;23.274;2024-02-21T00:54:04;3.25;;;2.30;;
84860;SDS011;75116;42.644;23.274;2024-02-21T00:56:29;5.45;;;2.75;;
84860;SDS011;75116;42.644;23.274;2024-02-21T00:58:56;2.08;;;1.85;;
84860;SDS011;75116;42.644;23.274;2024-02-21T01:01:22;2.75;;;2.15;;
84860;SDS011;75116;42.644;23.274;2024-02-21T01:03:49;4.47;;;2.97;;
84860;SDS011;75116;42.644;23.274;2024-02-21T01:06:14;3.20;;;2.00;;
84860;SDS011;75116;42.644;23.274;2024-02-21T01:08:40;3.22;;;2.45;;
84860;SDS011;75116;42.644;23.274;2024-02-21T01:11:05;4.32;;;2.08;;
84860;SDS011;75116;42.644;23.274;2024-02-21T01:13:31;3.60;;;2.85;;
84860;SDS011;75116;42.644;23.274;2024-02-21T01:15:56;3.92;;;3.38;;
84860;SDS011;75116;42.644;23.274;2024-02-21T01:18:23;4.57;;;3.65;;
84860;SDS011;75116;42.644;23.274;2024-02-21T01:20:50;5.10;;;3.75;;
84860;SDS011;75116;42.644;23.274;2024-02-21T01:23:16;4.00;;;2.55;;
84860;SDS011;75116;42.644;23.274;2024-02-21T01:25:42;4.93;;;2.60;;
84860;SDS011;75116;42.644;23.274;2024-02-21T01:28:07;6.20;;;4.68;;
84860;SDS011;75116;42.644;23.274;2024-02-21T01:30:34;5.13;;;4.32;;
84860;SDS011;75116;42.644;23.274;2024-02-21T01:33:00;7.07;;;4.20;;
84860;SDS011;75116;42.644;23.274;2024-02-21T01:35:25;7.28;;;6.03;;
84860;SDS011;75116;42.644;23.274;2024-02-21T01:37:51;5.57;;;4.22;;
84860;SDS011;75116;42.644;23.274;2024-02-21T01:40:18;7.03;;;3.80;;
84860;SDS011;75116;42.644;23.274;2024-02-21T01:42:43;4.60;;;3.58;;
84860;SDS011;75116;42.644;23.274;2024-02-21T01:45:09;7.18;;;5.10;;
84860;SDS011;75116;42.644;23.274;2024-02-21T01:47:35;10.82;;;7.40;;
84860;SDS011;75116;42.644;23.274;2024-02-21T01:50:02;9.23;;;5.50;;
84860;SDS011;75116;42.644;23.274;2024-02-21T01:52:29;9.80;;;5.55;;
84860;SDS011;75116;42.644;23.274;2024-02-21T01:54:56;9.40;;;5.78;;
84860;SDS011;75116;42.644;23.274;2024-02-21T01:57:23;7.68;;;5.03;;
84860;SDS011;75116;42.644;23.274;2024-02-21T01:59:49;11.27;;;7.90;;
84860;SDS011;75116;42.644;23.274;2024-02-21T02:02:15;10.40;;;6.43;;
84860;SDS011;75116;42.644;23.274;2024-02-21T02:04:41;7.60;;;5.20;;
84860;SDS011;75116;42.644;23.274;2024-02-21T02:07:08;8.85;;;5.10;;
84860;SDS011;75116;42.644;23.274;2024-02-21T02:09:34;10.65;;;6.43;;
84860;SDS011;75116;42.644;23.274;2024-02-21T02:12:00;9.18;;;4.32;;
84860;SDS011;75116;42.644;23.274;2024-02-21T02:14:26;10.23;;;5.90;;
84860;SDS011;75116;42.644;23.274;2024-02-21T02:16:52;11.07;;;7.13;;
84860;SDS011;75116;42.644;23.274;2024-02-21T02:19:19;9.65;;;6.53;;
84860;SDS011;75116;42.644;23.274;2024-02-21T02:21:49;10.52;;;6.35;;
84860;SDS011;75116;42.644;23.274;2024-02-21T02:24:20;7.20;;;4.53;;
84860;SDS011;75116;42.644;23.274;2024-02-21T02:26:49;9.52;;;5.75;;
84860;SDS011;75116;42.644;23.274;2024-02-21T02:29:16;10.88;;;6.55;;
84860;SDS011;75116;42.644;23.274;2024-02-21T02:31:42;11.15;;;6.13;;
84860;SDS011;75116;42.644;23.274;2024-02-21T02:34:07;8.65;;;5.30;;
84860;SDS011;75116;42.644;23.274;2024-02-21T02:36:33;10.73;;;6.93;;
84860;SDS011;75116;42.644;23.274;2024-02-21T02:38:59;11.70;;;7.40;;
84860;SDS011;75116;42.644;23.274;2024-02-21T02:41:24;8.23;;;5.35;;
84860;SDS011;75116;42.644;23.274;2024-02-21T02:43:50;9.70;;;5.78;;
84860;SDS011;75116;42.644;23.274;2024-02-21T02:46:16;9.20;;;5.60;;
84860;SDS011;75116;42.644;23.274;2024-02-21T02:48:42;8.18;;;5.22;;
84860;SDS011;75116;42.644;23.274;2024-02-21T02:51:08;12.63;;;6.70;;
84860;SDS011;75116;42.644;23.274;2024-02-21T02:53:33;12.23;;;6.38;;
84860;SDS011;75116;42.644;23.274;2024-02-21T02:55:59;12.40;;;7.25;;
84860;SDS011;75116;42.644;23.274;2024-02-21T02:58:24;9.60;;;5.55;;
84860;SDS011;75116;42.644;23.274;2024-02-21T03:00:50;9.63;;;6.22;;
84860;SDS011;75116;42.644;23.274;2024-02-21T03:03:15;11.43;;;7.00;;
84860;SDS011;75116;42.644;23.274;2024-02-21T03:05:41;12.35;;;7.75;;
84860;SDS011;75116;42.644;23.274;2024-02-21T03:08:06;7.47;;;4.22;;
84860;SDS011;75116;42.644;23.274;2024-02-21T03:10:34;12.63;;;7.03;;
84860;SDS011;75116;42.644;23.274;2024-02-21T03:13:00;13.55;;;7.60;;
84860;SDS011;75116;42.644;23.274;2024-02-21T03:15:26;12.43;;;7.97;;
84860;SDS011;75116;42.644;23.274;2024-02-21T03:17:51;16.23;;;8.70;;
84860;SDS011;75116;42.644;23.274;2024-02-21T03:20:17;10.77;;;6.70;;
84860;SDS011;75116;42.644;23.274;2024-02-21T03:22:43;14.25;;;8.98;;
84860;SDS011;75116;42.644;23.274;2024-02-21T03:25:09;13.77;;;8.02;;
84860;SDS011;75116;42.644;23.274;2024-02-21T03:27:35;11.90;;;7.00;;
84860;SDS011;75116;42.644;23.274;2024-02-21T03:30:01;10.27;;;7.20;;
84860;SDS011;75116;42.644;23.274;2024-02-21T03:32:27;11.52;;;6.82;;
84860;SDS011;75116;42.644;23.274;2024-02-21T03:34:53;8.82;;;5.32;;
84860;SDS011;75116;42.644;23.274;2024-02-21T03:37:20;11.25;;;6.53;;
84860;SDS011;75116;42.644;23.274;2024-02-21T03:39:45;13.10;;;7.53;;
84860;SDS011;75116;42.644;23.274;2024-02-21T03:42:11;7.47;;;5.57;;
84860;SDS011;75116;42.644;23.274;2024-02-21T03:44:37;11.20;;;6.20;;
84860;SDS011;75116;42.644;23.274;2024-02-21T03:47:02;14.10;;;8.85;;
84860;SDS011;75116;42.644;23.274;2024-02-21T03:49:28;8.10;;;5.85;;
84860;SDS011;75116;42.644;23.274;2024-02-21T03:51:54;14.23;;;7.15;;
84860;SDS011;75116;42.644;23.274;2024-02-21T03:54:19;11.95;;;7.35;;
84860;SDS011;75116;42.644;23.274;2024-02-21T03:56:45;12.90;;;7.90;;
84860;SDS011;75116;42.644;23.274;2024-02-21T03:59:12;11.77;;;7.43;;
84860;SDS011;75116;42.644;23.274;2024-02-21T04:01:40;13.70;;;7.45;;
84860;SDS011;75116;42.644;23.274;2024-02-21T04:04:05;13.80;;;7.88;;
84860;SDS011;75116;42.644;23.274;2024-02-21T04:06:47;11.88;;;7.30;;
84860;SDS011;75116;42.644;23.274;2024-02-21T04:09:22;10.88;;;7.20;;
84860;SDS011;75116;42.644;23.274;2024-02-21T04:11:57;9.57;;;5.85;;
84860;SDS011;75116;42.644;23.274;2024-02-21T04:14:22;8.98;;;6.20;;
84860;SDS011;75116;42.644;23.274;2024-02-21T04:16:48;11.27;;;7.07;;
84860;SDS011;75116;42.644;23.274;2024-02-21T04:19:13;11.57;;;6.55;;
84860;SDS011;75116;42.644;23.274;2024-02-21T04:21:39;14.55;;;6.68;;
84860;SDS011;75116;42.644;23.274;2024-02-21T04:24:04;10.05;;;6.07;;
84860;SDS011;75116;42.644;23.274;2024-02-21T04:26:30;9.80;;;6.25;;
84860;SDS011;75116;42.644;23.274;2024-02-21T04:28:56;13.32;;;5.72;;
84860;SDS011;75116;42.644;23.274;2024-02-21T04:31:21;6.90;;;4.53;;
84860;SDS011;75116;42.644;23.274;2024-02-21T04:33:47;10.85;;;5.50;;
84860;SDS011;75116;42.644;23.274;2024-02-21T04:36:12;11.43;;;6.38;;
84860;SDS011;75116;42.644;23.274;2024-02-21T04:38:38;9.02;;;5.70;;
84860;SDS011;75116;42.644;23.274;2024-02-21T04:41:04;8.43;;;4.72;;
84860;SDS011;75116;42.644;23.274;2024-02-21T04:43:29;11.10;;;6.82;;
84860;SDS011;75116;42.644;23.274;2024-02-21T04:45:55;10.50;;;6.53;;
84860;SDS011;75116;42.644;23.274;2024-02-21T04:48:21;14.45;;;6.93;;
84860;SDS011;75116;42.644;23.274;2024-02-21T04:50:47;11.18;;;5.95;;
84860;SDS011;75116;42.644;23.274;2024-02-21T04:53:12;8.70;;;5.15;;
84860;SDS011;75116;42.644;23.274;2024-02-21T04:55:38;10.70;;;5.65;;
84860;SDS011;75116;42.644;23.274;2024-02-21T04:58:05;10.23;;;6.18;;
84860;SDS011;75116;42.644;23.274;2024-02-21T05:00:30;8.07;;;5.35;;
84860;SDS011;75116;42.644;23.274;2024-02-21T05:02:56;11.05;;;7.70;;
84860;SDS011;75116;42.644;23.274;2024-02-21T05:05:21;9.82;;;5.80;;
84860;SDS011;75116;42.644;23.274;2024-02-21T05:07:47;10.70;;;6.25;;
84860;SDS011;75116;42.644;23.274;2024-02-21T05:10:12;10.38;;;6.97;;
84860;SDS011;75116;42.644;23.274;2024-02-21T05:12:38;9.57;;;5.95;;
84860;SDS011;75116;42.644;23.274;2024-02-21T05:15:07;12.05;;;6.35;;
84860;SDS011;75116;42.644;23.274;2024-02-21T05:17:36;12.05;;;8.02;;
84860;SDS011;75116;42.644;23.274;2024-02-21T05:20:01;10.23;;;6.78;;
84860;SDS011;75116;42.644;23.274;2024-02-21T05:22:27;9.45;;;6.07;;
84860;SDS011;75116;42.644;23.274;2024-02-21T05:24:56;11.85;;;7.85;;
84860;SDS011;75116;42.644;23.274;2024-02-21T05:27:24;10.95;;;7.68;;
84860;SDS011;75116;42.644;23.274;2024-02-21T05:29:50;8.88;;;5.32;;
84860;SDS011;75116;42.644;23.274;2024-02-21T05:32:16;8.32;;;5.22;;
84860;SDS011;75116;42.644;23.274;2024-02-21T05:34:44;10.05;;;6.55;;
84860;SDS011;75116;42.644;23.274;2024-02-21T05:37:16;10.93;;;4.95;;
84860;SDS011;75116;42.644;23.274;2024-02-21T05:39:44;12.02;;;6.90;;
84860;SDS011;75116;42.644;23.274;2024-02-21T05:42:11;11.75;;;6.40;;
84860;SDS011;75116;42.644;23.274;2024-02-21T05:44:37;11.18;;;6.90;;
84860;SDS011;75116;42.644;23.274;2024-02-21T05:47:03;11.77;;;6.85;;
84860;SDS011;75116;42.644;23.274;2024-02-21T05:49:28;8.43;;;5.40;;
84860;SDS011;75116;42.644;23.274;2024-02-21T05:51:54;9.77;;;6.60;;
84860;SDS011;75116;42.644;23.274;2024-02-21T05:54:19;11.18;;;6.85;;
84860;SDS011;75116;42.644;23.274;2024-02-21T05:56:45;11.80;;;5.68;;
84860;SDS011;75116;42.644;23.274;2024-02-21T05:59:12;12.63;;;7.13;;
84860;SDS011;75116;42.644;23.274;2024-02-21T06:01:37;10.68;;;5.68;;
84860;SDS011;75116;42.644;23.274;2024-02-21T06:04:05;8.75;;;5.75;;
84860;SDS011;75116;42.644;23.274;2024-02-21T06:06:31;11.10;;;6.35;;
84860;SDS011;75116;42.644;23.274;2024-02-21T06:08:56;10.10;;;6.10;;
84860;SDS011;75116;42.644;23.274;2024-02-21T06:11:23;13.77;;;7.93;;
84860;SDS011;75116;42.644;23.274;2024-02-21T06:13:49;9.13;;;6.22;;
84860;SDS011;75116;42.644;23.274;2024-02-21T06:16:15;12.38;;;6.75;;
84860;SDS011;75116;42.644;23.274;2024-02-21T06:18:40;14.02;;;7.57;;
84860;SDS011;75116;42.644;23.274;2024-02-21T06:21:06;12.18;;;5.57;;
84860;SDS011;75116;42.644;23.274;2024-02-21T06:23:36;10.63;;;7.65;;
84860;SDS011;75116;42.644;23.274;2024-02-21T06:26:02;13.95;;;8.63;;
84860;SDS011;75116;42.644;23.274;2024-02-21T06:28:27;9.60;;;6.10;;
84860;SDS011;75116;42.644;23.274;2024-02-21T06:30:53;12.73;;;7.30;;
84860;SDS011;75116;42.644;23.274;2024-02-21T06:33:18;13.27;;;6.78;;
84860;SDS011;75116;42.644;23.274;2024-02-21T06:35:47;9.00;;;5.10;;
84860;SDS011;75116;42.644;23.274;2024-02-21T06:38:13;15.65;;;7.93;;
84860;SDS011;75116;42.644;23.274;2024-02-21T06:40:40;14.98;;;8.68;;
84860;SDS011;75116;42.644;23.274;2024-02-21T06:43:06;11.05;;;6.65;;
84860;SDS011;75116;42.644;23.274;2024-02-21T06:45:32;15.38;;;7.70;;
84860;SDS011;75116;42.644;23.274;2024-02-21T06:47:57;12.65;;;8.02;;
84860;SDS011;75116;42.644;23.274;2024-02-21T06:50:23;8.30;;;6.13;;
84860;SDS011;75116;42.644;23.274;2024-02-21T06:52:48;14.25;;;8.20;;
84860;SDS011;75116;42.644;23.274;2024-02-21T06:55:14;12.55;;;7.47;;
84860;SDS011;75116;42.644;23.274;2024-02-21T06:57:40;12.00;;;5.93;;
84860;SDS011;75116;42.644;23.274;2024-02-21T07:00:05;10.77;;;7.38;;
84860;SDS011;75116;42.644;23.274;2024-02-21T07:02:33;11.02;;;6.82;;
84860;SDS011;75116;42.644;23.274;2024-02-21T07:04:59;12.43;;;7.70;;
84860;SDS011;75116;42.644;23.274;2024-02-21T07:07:25;15.10;;;9.38;;
84860;SDS011;75116;42.644;23.274;2024-02-21T07:09:52;11.80;;;8.60;;
84860;SDS011;75116;42.644;23.274;2024-02-21T07:12:19;14.82;;;8.23;;
84860;SDS011;75116;42.644;23.274;2024-02-21T07:14:45;14.20;;;7.40;;
84860;SDS011;75116;42.644;23.274;2024-02-21T07:17:10;10.07;;;6.35;;
84860;SDS011;75116;42.644;23.274;2024-02-21T07:19:36;16.55;;;9.15;;
84860;SDS011;75116;42.644;23.274;2024-02-21T07:22:01;11.25;;;7.25;;
84860;SDS011;75116;42.644;23.274;2024-02-21T07:24:27;15.82;;;8.75;;
84860;SDS011;75116;42.644;23.274;2024-02-21T07:26:53;16.80;;;9.43;;
84860;SDS011;75116;42.644;23.274;2024-02-21T07:29:19;13.32;;;7.10;;
84860;SDS011;75116;42.644;23.274;2024-02-21T07:31:44;12.48;;;6.53;;
84860;SDS011;75116;42.644;23.274;2024-02-21T07:34:10;11.95;;;6.75;;
84860;SDS011;75116;42.644;23.274;2024-02-21T07:36:36;15.18;;;7.55;;
84860;SDS011;75116;42.644;23.274;2024-02-21T07:39:04;15.20;;;7.45;;
84860;SDS011;75116;42.644;23.274;2024-02-21T07:41:30;10.27;;;6.03;;
84860;SDS011;75116;42.644;23.274;2024-02-21T07:43:56;9.43;;;7.70;;
84860;SDS011;75116;42.644;23.274;2024-02-21T07:46:22;13.55;;;7.63;;
84860;SDS011;75116;42.644;23.274;2024-02-21T07:48:47;12.00;;;7.60;;
84860;SDS011;75116;42.644;23.274;2024-02-21T07:51:13;14.30;;;8.35;;
84860;SDS011;75116;42.644;23.274;2024-02-21T07:53:39;14.82;;;9.57;;
84860;SDS011;75116;42.644;23.274;2024-02-21T07:56:10;16.15;;;9.57;;
84860;SDS011;75116;42.644;23.274;2024-02-21T07:58:36;11.43;;;6.72;;
84860;SDS011;75116;42.644;23.274;2024-02-21T08:01:01;11.55;;;7.30;;
84860;SDS011;75116;42.644;23.274;2024-02-21T08:03:27;12.48;;;8.57;;
84860;SDS011;75116;42.644;23.274;2024-02-21T08:05:53;16.80;;;11.48;;
84860;SDS011;75116;42.644;23.274;2024-02-21T08:08:18;6.28;;;3.75;;
84860;SDS011;75116;42.644;23.274;2024-02-21T08:10:46;12.52;;;8.90;;
84860;SDS011;75116;42.644;23.274;2024-02-21T08:13:11;14.45;;;9.30;;
84860;SDS011;75116;42.644;23.274;2024-02-21T08:15:37;13.60;;;7.93;;
84860;SDS011;75116;42.644;23.274;2024-02-21T08:18:04;12.82;;;7.40;;
84860;SDS011;75116;42.644;23.274;2024-02-21T08:20:30;11.40;;;7.93;;
84860;SDS011;75116;42.644;23.274;2024-02-21T08:22:56;8.88;;;4.93;;
84860;SDS011;75116;42.644;23.274;2024-02-21T08:25:21;14.63;;;10.13;;
84860;SDS011;75116;42.644;23.274;2024-02-21T08:27:47;15.27;;;10.32;;
84860;SDS011;75116;42.644;23.274;2024-02-21T08:30:13;8.75;;;5.65;;
84860;SDS011;75116;42.644;23.274;2024-02-21T08:32:39;8.80;;;5.10;;
84860;SDS011;75116;42.644;23.274;2024-02-21T08:35:05;12.27;;;5.88;;
84860;SDS011;75116;42.644;23.274;2024-02-21T08:37:31;10.70;;;5.72;;
84860;SDS011;75116;42.644;23.274;2024-02-21T08:39:56;6.78;;;5.10;;
84860;SDS011;75116;42.644;23.274;2024-02-21T08:42:22;6.88;;;4.45;;
84860;SDS011;75116;42.644;23.274;2024-02-21T08:44:48;7.68;;;5.43;;
84860;SDS011;75116;42.644;23.274;2024-02-21T08:47:14;11.23;;;9.45;;
84860;SDS011;75116;42.644;23.274;2024-02-21T08:49:40;9.43;;;6.32;;
84860;SDS011;75116;42.644;23.274;2024-02-21T08:52:05;7.10;;;5.10;;
84860;SDS011;75116;42.644;23.274;2024-02-21T08:54:31;8.80;;;5.03;;
84860;SDS011;75116;42.644;23.274;2024-02-21T08:57:00;10.43;;;7.30;;
84860;SDS011;75116;42.644;23.274;2024-02-21T08:59:25;8.82;;;6.28;;
84860;SDS011;75116;42.644;23.274;2024-02-21T09:01:51;6.95;;;5.72;;
84860;SDS011;75116;42.644;23.274;2024-02-21T09:04:18;9.38;;;5.78;;
84860;SDS011;75116;42.644;23.274;2024-02-21T09:06:44;12.75;;;8.57;;
84860;SDS011;75116;42.644;23.274;2024-02-21T09:09:11;11.88;;;7.00;;
84860;SDS011;75116;42.644;23.274;2024-02-21T09:11:37;10.82;;;9.32;;
84860;SDS011;75116;42.644;23.274;2024-02-21T09:14:03;10.23;;;7.13;;
84860;SDS011;75116;42.644;23.274;2024-02-21T09:16:30;13.55;;;8.25;;
84860;SDS011;75116;42.644;23.274;2024-02-21T09:18:57;15.05;;;8.68;;
84860;SDS011;75116;42.644;23.274;2024-02-21T09:21:23;11.75;;;8.07;;
84860;SDS011;75116;42.644;23.274;2024-02-21T09:23:48;7.07;;;5.18;;
84860;SDS011;75116;42.644;23.274;2024-02-21T09:26:14;9.48;;;6.15;;
84860;SDS011;75116;42.644;23.274;2024-02-21T09:28:42;8.65;;;5.97;;
84860;SDS011;75116;42.644;23.274;2024-02-21T09:31:09;8.02;;;5.97;;
84860;SDS011;75116;42.644;23.274;2024-02-21T09:33:34;11.63;;;5.43;;
84860;SDS011;75116;42.644;23.274;2024-02-21T09:36:00;9.38;;;5.55;;
84860;SDS011;75116;42.644;23.274;2024-02-21T09:38:26;9.80;;;6.22;;
84860;SDS011;75116;42.644;23.274;2024-02-21T09:41:15;8.10;;;5.35;;
84860;SDS011;75116;42.644;23.274;2024-02-21T09:43:49;9.25;;;5.18;;
84860;SDS011;75116;42.644;23.274;2024-02-21T09:46:16;9.05;;;4.65;;
84860;SDS011;75116;42.644;23.274;2024-02-21T09:51:09;5.93;;;3.65;;
84860;SDS011;75116;42.644;23.274;2024-02-21T09:53:37;11.23;;;9.32;;
84860;SDS011;75116;42.644;23.274;2024-02-21T09:56:03;10.10;;;6.25;;
84860;SDS011;75116;42.644;23.274;2024-02-21T09:58:35;9.40;;;5.72;;
84860;SDS011;75116;42.644;23.274;2024-02-21T10:01:01;9.85;;;6.90;;
84860;SDS011;75116;42.644;23.274;2024-02-21T10:03:31;10.60;;;5.20;;
84860;SDS011;75116;42.644;23.274;2024-02-21T10:05:58;9.25;;;5.78;;
84860;SDS011;75116;42.644;23.274;2024-02-21T10:08:26;9.02;;;6.50;;
84860;SDS011;75116;42.644;23.274;2024-02-21T10:10:51;11.95;;;4.45;;
84860;SDS011;75116;42.644;23.274;2024-02-21T10:13:27;8.32;;;6.38;;
84860;SDS011;75116;42.644;23.274;2024-02-21T10:16:04;8.50;;;5.57;;
84860;SDS011;75116;42.644;23.274;2024-02-21T10:18:31;14.35;;;6.78;;
84860;SDS011;75116;42.644;23.274;2024-02-21T10:21:00;8.57;;;5.15;;
84860;SDS011;75116;42.644;23.274;2024-02-21T10:23:45;30.42;;;11.93;;
84860;SDS011;75116;42.644;23.274;2024-02-21T10:26:14;5.78;;;3.10;;
84860;SDS011;75116;42.644;23.274;2024-02-21T10:28:40;5.93;;;3.78;;
84860;SDS011;75116;42.644;23.274;2024-02-21T10:31:26;6.97;;;4.28;;
84860;SDS011;75116;42.644;23.274;2024-02-21T10:33:59;11.10;;;5.30;;
84860;SDS011;75116;42.644;23.274;2024-02-21T10:36:29;5.32;;;3.70;;
84860;SDS011;75116;42.644;23.274;2024-02-21T10:38:55;4.20;;;3.72;;
84860;SDS011;75116;42.644;23.274;2024-02-21T10:41:21;8.45;;;4.28;;
84860;SDS011;75116;42.644;23.274;2024-02-21T10:43:52;6.43;;;4.25;;
84860;SDS011;75116;42.644;23.274;2024-02-21T10:46:21;4.93;;;3.67;;
84860;SDS011;75116;42.644;23.274;2024-02-21T10:48:48;6.03;;;3.58;;
84860;SDS011;75116;42.644;23.274;2024-02-21T10:51:43;6.88;;;4.20;;
84860;SDS011;75116;42.644;23.274;2024-02-21T10:57:07;9.25;;;4.82;;
84860;SDS011;75116;42.644;23.274;2024-02-21T10:59:36;4.78;;;3.50;;
84860;SDS011;75116;42.644;23.274;2024-02-21T11:02:04;4.65;;;3.53;;
84860;SDS011;75116;42.644;23.274;2024-02-21T11:04:30;5.88;;;4.22;;
84860;SDS011;75116;42.644;23.274;2024-02-21T11:07:01;3.90;;;3.17;;
84860;SDS011;75116;42.644;23.274;2024-02-21T11:09:31;4.60;;;3.47;;
84860;SDS011;75116;42.644;23.274;2024-02-21T11:12:04;6.68;;;3.97;;
84860;SDS011;75116;42.644;23.274;2024-02-21T11:14:31;5.38;;;3.42;;
84860;SDS011;75116;42.644;23.274;2024-02-21T11:17:14;4.07;;;3.17;;
84860;SDS011;75116;42.644;23.274;2024-02-21T11:19:41;6.13;;;3.60;;
84860;SDS011;75116;42.644;23.274;2024-02-21T11:22:13;5.32;;;2.88;;
84860;SDS011;75116;42.644;23.274;2024-02-21T11:24:41;3.17;;;2.88;;
84860;SDS011;75116;42.644;23.274;2024-02-21T11:27:20;7.63;;;5.68;;
84860;SDS011;75116;42.644;23.274;2024-02-21T11:29:53;5.78;;;4.45;;
84860;SDS011;75116;42.644;23.274;2024-02-21T11:32:20;2.38;;;1.60;;
84860;SDS011;75116;42.644;23.274;2024-02-21T11:34:54;7.03;;;4.40;;
84860;SDS011;75116;42.644;23.274;2024-02-21T11:37:33;3.88;;;3.40;;
84860;SDS011;75116;42.644;23.274;2024-02-21T11:40:02;3.88;;;3.40;;
84860;SDS011;75116;42.644;23.274;2024-02-21T11:42:28;4.90;;;3.55;;
84860;SDS011;75116;42.644;23.274;2024-02-21T11:44:54;4.28;;;2.90;;
84860;SDS011;75116;42.644;23.274;2024-02-21T11:47:24;4.93;;;2.90;;
84860;SDS011;75116;42.644;23.274;2024-02-21T11:49:50;3.60;;;2.80;;
84860;SDS011;75116;42.644;23.274;2024-02-21T11:52:22;5.50;;;3.67;;
84860;SDS011;75116;42.644;23.274;2024-02-21T11:54:53;4.90;;;2.72;;
84860;SDS011;75116;42.644;23.274;2024-02-21T11:57:22;3.78;;;2.75;;
84860;SDS011;75116;42.644;23.274;2024-02-21T11:59:47;5.25;;;4.70;;
84860;SDS011;75116;42.644;23.274;2024-02-21T12:02:15;5.63;;;4.78;;
84860;SDS011;75116;42.644;23.274;2024-02-21T12:04:41;6.45;;;3.95;;
84860;SDS011;75116;42.644;23.274;2024-02-21T12:07:08;4.20;;;3.40;;
84860;SDS011;75116;42.644;23.274;2024-02-21T12:09:34;4.65;;;2.35;;
84860;SDS011;75116;42.644;23.274;2024-02-21T12:12:03;7.15;;;2.13;;
84860;SDS011;75116;42.644;23.274;2024-02-21T12:14:31;5.85;;;2.40;;
84860;SDS011;75116;42.644;23.274;2024-02-21T12:16:58;6.28;;;3.75;;
84860;SDS011;75116;42.644;23.274;2024-02-21T12:19:25;7.57;;;4.93;;
84860;SDS011;75116;42.644;23.274;2024-02-21T12:21:51;4.65;;;3.88;;
84860;SDS011;75116;42.644;23.274;2024-02-21T12:24:26;7.45;;;4.47;;
84860;SDS011;75116;42.644;23.274;2024-02-21T12:26:53;6.90;;;5.43;;
84860;SDS011;75116;42.644;23.274;2024-02-21T12:29:20;6.75;;;3.45;;
84860;SDS011;75116;42.644;23.274;2024-02-21T12:31:47;6.00;;;4.15;;
84860;SDS011;75116;42.644;23.274;2024-02-21T12:34:14;6.25;;;4.10;;
84860;SDS011;75116;42.644;23.274;2024-02-21T12:36:46;6.32;;;4.60;;
84860;SDS011;75116;42.644;23.274;2024-02-21T12:39:14;5.20;;;3.72;;
84860;SDS011;75116;42.644;23.274;2024-02-21T12:41:40;9.02;;;5.45;;
84860;SDS011;75116;42.644;23.274;2024-02-21T12:44:08;6.45;;;4.55;;
84860;SDS011;75116;42.644;23.274;2024-02-21T12:46:34;6.70;;;4.47;;
84860;SDS011;75116;42.644;23.274;2024-02-21T12:49:03;5.70;;;4.05;;
84860;SDS011;75116;42.644;23.274;2024-02-21T12:51:29;4.60;;;3.13;;
84860;SDS011;75116;42.644;23.274;2024-02-21T12:53:55;5.25;;;3.05;;
84860;SDS011;75116;42.644;23.274;2024-02-21T12:56:21;4.65;;;3.40;;
84860;SDS011;75116;42.644;23.274;2024-02-21T12:58:47;6.25;;;3.28;;
84860;SDS011;75116;42.644;23.274;2024-02-21T13:01:12;5.68;;;3.20;;
84860;SDS011;75116;42.644;23.274;2024-02-21T13:03:38;3.30;;;2.72;;
84860;SDS011;75116;42.644;23.274;2024-02-21T13:06:16;2.72;;;1.80;;
84860;SDS011;75116;42.644;23.274;2024-02-21T13:08:44;4.22;;;2.17;;
84860;SDS011;75116;42.644;23.274;2024-02-21T13:11:11;3.63;;;2.60;;
84860;SDS011;75116;42.644;23.274;2024-02-21T13:13:37;4.65;;;2.75;;
84860;SDS011;75116;42.644;23.274;2024-02-21T13:16:03;3.90;;;2.90;;
84860;SDS011;75116;42.644;23.274;2024-02-21T13:18:29;4.07;;;3.50;;
84860;SDS011;75116;42.644;23.274;2024-02-21T13:20:54;6.72;;;3.38;;
84860;SDS011;75116;42.644;23.274;2024-02-21T13:23:21;4.20;;;2.83;;
84860;SDS011;75116;42.644;23.274;2024-02-21T13:25:46;10.82;;;6.78;;
84860;SDS011;75116;42.644;23.274;2024-02-21T13:28:12;5.68;;;3.42;;
84860;SDS011;75116;42.644;23.274;2024-02-21T13:30:39;7.00;;;5.82;;
84860;SDS011;75116;42.644;23.274;2024-02-21T13:33:08;8.77;;;5.93;;
84860;SDS011;75116;42.644;23.274;2024-02-21T13:35:35;6.93;;;2.97;;
84860;SDS011;75116;42.644;23.274;2024-02-21T13:38:01;7.07;;;5.32;;
84860;SDS011;75116;42.644;23.274;2024-02-21T13:40:28;7.75;;;5.70;;
84860;SDS011;75116;42.644;23.274;2024-02-21T13:42:53;7.05;;;4.72;;
84860;SDS011;75116;42.644;23.274;2024-02-21T13:45:19;8.20;;;5.25;;
84860;SDS011;75116;42.644;23.274;2024-02-21T13:47:44;4.85;;;4.25;;
84860;SDS011;75116;42.644;23.274;2024-02-21T13:50:10;5.93;;;4.05;;
84860;SDS011;75116;42.644;23.274;2024-02-21T13:52:37;2.20;;;1.60;;
84860;SDS011;75116;42.644;23.274;2024-02-21T13:55:03;5.25;;;4.10;;
84860;SDS011;75116;42.644;23.274;2024-02-21T13:57:29;3.65;;;2.72;;
84860;SDS011;75116;42.644;23.274;2024-02-21T13:59:54;1.95;;;1.75;;
84860;SDS011;75116;42.644;23.274;2024-02-21T14:02:20;5.68;;;3.55;;
84860;SDS011;75116;42.644;23.274;2024-02-21T14:04:46;2.95;;;2.33;;
84860;SDS011;75116;42.644;23.274;2024-02-21T14:07:14;8.05;;;4.65;;
84860;SDS011;75116;42.644;23.274;2024-02-21T14:09:42;4.85;;;2.75;;
84860;SDS011;75116;42.644;23.274;2024-02-21T14:12:08;6.05;;;3.92;;
84860;SDS011;75116;42.644;23.274;2024-02-21T14:14:42;5.15;;;3.53;;
84860;SDS011;75116;42.644;23.274;2024-02-21T14:17:11;3.42;;;2.63;;
84860;SDS011;75116;42.644;23.274;2024-02-21T14:19:36;10.27;;;5.68;;
84860;SDS011;75116;42.644;23.274;2024-02-21T14:22:02;7.47;;;4.70;;
84860;SDS011;75116;42.644;23.274;2024-02-21T14:24:27;6.10;;;3.95;;
84860;SDS011;75116;42.644;23.274;2024-02-21T14:26:53;7.75;;;4.03;;
84860;SDS011;75116;42.644;23.274;2024-02-21T14:29:20;4.93;;;4.18;;
84860;SDS011;75116;42.644;23.274;2024-02-21T14:31:46;4.63;;;3.33;;